ADDS METAR Data INFO
IDs: Format: Raw Decoded Include TAF

Data at: 2355 UTC 16 Oct 2017

K46U 162320Z AUTO 31004KT 10SM CLR 16/M03 A3035 RMK A01
K46U 162300Z AUTO 29004KT 10SM CLR 16/M08 A3035 RMK A01
K46U 162240Z AUTO 30006KT 10SM CLR 16/M06 A3036 RMK A01
K46U 162220Z AUTO 30003KT 10SM CLR 16/M01 A3036 RMK A01
K46U 162200Z AUTO 34003KT 10SM CLR 16/M05 A3036 RMK A01
K46U 162140Z AUTO 32004KT 10SM CLR 15/M05 A3036 RMK A01
K46U 162120Z AUTO 00000KT 10SM CLR 16/M09 A3037 RMK A01
K46U 162100Z AUTO VRB04KT 10SM CLR 16/M06 A3037 RMK A01
K46U 162040Z AUTO 00000KT 10SM CLR 15/M06 A3038 RMK A01
K46U 162020Z AUTO 30004KT 10SM CLR 13/M04 A3038 RMK A01
K46U 162000Z AUTO VRB03KT 10SM CLR 12/M01 A3040 RMK A01
K46U 161940Z AUTO VRB03KT 10SM CLR 13/M05 A3041 RMK A01
K46U 161920Z AUTO 24003KT 10SM CLR 11/M07 A3042 RMK A01
K46U 161900Z AUTO 00000KT 10SM CLR 10/M05 A3043 RMK A01
K46U 161840Z AUTO 00000KT 10SM CLR 09/M07 A3044 RMK A01
K46U 161820Z AUTO 00000KT 10SM CLR 08/M07 A3045 RMK A01
K46U 161800Z AUTO 00000KT 10SM CLR 07/M03 A3045 RMK A01
K46U 161740Z AUTO 21003KT 10SM CLR 06/M03 A3046 RMK A01
K46U 161720Z AUTO 00000KT 10SM CLR 05/M02 A3046 RMK A01
K46U 161700Z AUTO 00000KT 10SM CLR 05/M03 A3047 RMK A01
K46U 161640Z AUTO 00000KT 10SM CLR 04/M04 A3048 RMK A01
K46U 161620Z AUTO 13005KT 10SM CLR 02/M04 A3048 RMK A01
K46U 161600Z AUTO 11005KT 10SM CLR 01/M04 A3048 RMK A01
K46U 161540Z AUTO VRB04G12KT 10SM CLR 00/M04 A3049 RMK A01
K46U 161520Z AUTO 13012KT 10SM CLR M00/M04 A3049 RMK A01
K46U 161500Z AUTO 13008KT 10SM CLR M01/M05 A3048 RMK A01
K46U 161440Z AUTO 13006KT 10SM CLR M02/M05 A3048 RMK A01
K46U 161420Z AUTO 12006KT 10SM CLR M03/M06 A3047 RMK A01
K46U 161400Z AUTO 12006KT 10SM CLR M03/M05 A3047 RMK A01
K46U 161340Z AUTO 12005KT 10SM CLR M03/M05 A3047 RMK A01
K46U 161320Z AUTO VRB04KT 10SM CLR M02/M05 A3046 RMK A01
K46U 161300Z AUTO VRB05KT 10SM CLR M02/M04 A3046 RMK A01
K46U 161240Z AUTO 12006KT 10SM CLR M02/M05 A3046 RMK A01
K46U 161220Z AUTO 12006KT 10SM CLR M02/M04 A3046 RMK A01
K46U 161200Z AUTO 13007KT 10SM CLR M02/M04 A3046 RMK A01
K46U 161140Z AUTO 13008KT 10SM CLR M02/M05 A3045 RMK A01
K46U 161120Z AUTO 13006KT 10SM CLR M01/M05 A3045 RMK A01
K46U 161100Z AUTO 14005KT 10SM CLR M02/M04 A3046 RMK A01
K46U 161040Z AUTO 15004KT 10SM CLR M01/M04 A3046 RMK A01
K46U 161020Z AUTO 12009KT 10SM CLR M01/M04 A3046 RMK A01
K46U 161000Z AUTO 10008KT 10SM CLR M01/M04 A3046 RMK A01
K46U 160940Z AUTO 12004KT 10SM CLR M01/M04 A3046 RMK A01
K46U 160920Z AUTO 13006KT 10SM CLR M00/M04 A3046 RMK A01
K46U 160900Z AUTO 14007KT 10SM CLR M00/M04 A3046 RMK A01
K46U 160840Z AUTO 12008KT 10SM CLR M00/M04 A3046 RMK A01
K46U 160820Z AUTO 13006KT 10SM CLR 00/M03 A3046 RMK A01
K46U 160800Z AUTO 12006KT 10SM CLR 00/M03 A3046 RMK A01
K46U 160740Z AUTO 13008KT 10SM CLR 01/M03 A3046 RMK A01
K46U 160720Z AUTO 14006G11KT 10SM CLR 01/M03 A3046 RMK A01
K46U 160700Z AUTO 14008KT 10SM CLR 01/M03 A3046 RMK A01
K46U 160640Z AUTO 12007KT 10SM CLR 01/M03 A3045 RMK A01
K46U 160620Z AUTO 13008KT 10SM CLR 01/M03 A3046 RMK A01
K46U 160600Z AUTO 14007KT 10SM CLR 01/M03 A3046 RMK A01
K46U 160540Z AUTO 10004KT 10SM CLR 02/M03 A3046 RMK A01
K46U 160520Z AUTO VRB04KT 10SM CLR 02/M03 A3046 RMK A01
K46U 160500Z AUTO 11007KT 10SM CLR 02/M03 A3046 RMK A01
K46U 160440Z AUTO 12007KT 10SM CLR 03/M03 A3046 RMK A01
K46U 160420Z AUTO 12006KT 10SM CLR 03/M03 A3046 RMK A01
K46U 160400Z AUTO 12006KT 10SM CLR 03/M03 A3046 RMK A01
K46U 160340Z AUTO 12005KT 10SM CLR 03/M03 A3046 RMK A01
K46U 160320Z AUTO 12008KT 10SM CLR 04/M03 A3046 RMK A01
K46U 160300Z AUTO 11004KT 10SM CLR 04/M02 A3046 RMK A01
K46U 160240Z AUTO 12005KT 10SM CLR 05/M03 A3046 RMK A01
K46U 160220Z AUTO 11006KT 10SM CLR 04/M02 A3046 RMK A01
K46U 160200Z AUTO 10004KT 10SM CLR 05/M03 A3046 RMK A01
K46U 160140Z AUTO 11005KT 10SM CLR 04/M03 A3045 RMK A01
K46U 160120Z AUTO 00000KT 10SM CLR 06/M03 A3045 RMK A01
K46U 160100Z AUTO 12006KT 10SM CLR 06/M04 A3044 RMK A01
K46U 160040Z AUTO 11005KT 10SM CLR 06/M05 A3045 RMK A01
K46U 160020Z AUTO 00000KT 10SM CLR 09/M01 A3045 RMK A01
K46U 160000Z AUTO 00000KT 10SM CLR 10/M01 A3045 RMK A01
K46U 152340Z AUTO 30004KT 10SM CLR 11/M02 A3046 RMK A01
K46U 152320Z AUTO 31004KT 10SM CLR 11/M03 A3046 RMK A01
K46U 152300Z AUTO 32005KT 10SM CLR 11/M05 A3046 RMK A01
K46U 152240Z AUTO 30004KT 10SM CLR 11/M04 A3046 RMK A01
K46U 152220Z AUTO 30005KT 10SM CLR 11/M05 A3047 RMK A01
K46U 152200Z AUTO 31004KT 10SM CLR 11/M07 A3047 RMK A01
K46U 152140Z AUTO 34005KT 10SM CLR 11/M07 A3048 RMK A01
K46U 152120Z AUTO 32005KT 10SM CLR 11/M07 A3049 RMK A01
K46U 152100Z AUTO 27005KT 10SM CLR 11/M06 A3049 RMK A01
K46U 152040Z AUTO 00000KT 10SM CLR 10/M10 A3050 RMK A01
K46U 152020Z AUTO 26003KT 10SM CLR 09/M08 A3051 RMK A01
K46U 152000Z AUTO 22004KT 10SM CLR 09/M10 A3052 RMK A01
K46U 151940Z AUTO 00000KT 10SM CLR 08/M09 A3054 RMK A01
K46U 151920Z AUTO 00000KT 10SM CLR 07/M07 A3055 RMK A01
K46U 151900Z AUTO 00000KT 10SM CLR 06/M06 A3056 RMK A01
K46U 151840Z AUTO 00000KT 10SM CLR 05/M07 A3057 RMK A01
K46U 151820Z AUTO VRB03KT 10SM CLR 04/M06 A3058 RMK A01
K46U 151800Z AUTO 00000KT 10SM CLR 03/M07 A3059 RMK A01
K46U 151740Z AUTO 24003KT 10SM CLR 03/M06 A3059 RMK A01
K46U 151720Z AUTO 00000KT 10SM CLR 02/M06 A3061 RMK A01
K46U 151700Z AUTO VRB03KT 10SM CLR 01/M07 A3062 RMK A01
K46U 151640Z AUTO 16003KT 10SM CLR M00/M08 A3062 RMK A01
K46U 151620Z AUTO VRB05KT 10SM CLR M01/M08 A3063 RMK A01
K46U 151600Z AUTO 13005KT 10SM CLR M02/M08 A3063 RMK A01
K46U 151540Z AUTO 14007KT 10SM CLR M02/M08 A3064 RMK A01
K46U 151520Z AUTO 12007G14KT 10SM CLR M03/M08 A3064 RMK A01
K46U 151500Z AUTO 12008KT 10SM CLR M04/M07 A3064 RMK A01
K46U 151440Z AUTO 13006KT 10SM CLR M05/M08 A3064 RMK A01
K46U 151420Z AUTO 14007KT 10SM CLR M05/M08 A3064 RMK A01
K46U 151400Z AUTO 13008KT 10SM CLR M05/M08 A3062 RMK A01
K46U 151340Z AUTO 11007KT 10SM CLR M05/M09 A3062 RMK A01
K46U 151320Z AUTO VRB03KT 10SM CLR M05/M08 A3062 RMK A01
K46U 151300Z AUTO 12007KT 10SM CLR M05/M09 A3062 RMK A01
K46U 151240Z AUTO VRB05KT 10SM CLR M05/M08 A3062 RMK A01
K46U 151220Z AUTO 13006KT 10SM CLR M05/M08 A3061 RMK A01
K46U 151200Z AUTO 13007KT 10SM CLR M05/M08 A3061 RMK A01